Time;durP1;ratioP1;P1;durP2;ratioP2;P2;SDS_P1;SDS_P2;PMS_P1;PMS_P2;Temp;Humidity;BMP_temperature;BMP_pressure;BME280_temperature;BME280_humidity;BME280_pressure;Samples;Min_cycle;Max_cycle;Signal;HPM_P1;HPM_P2
2021/06/05 00:02:08;;;;;;;14.27;13.00;;;20.60;1.00;;;;;;5108677;28;20190;-60
2021/06/05 00:04:33;;;;;;;13.40;12.20;;;20.60;1.00;;;;;;5095812;28;20964;-63
2021/06/05 00:06:59;;;;;;;13.90;12.80;;;20.70;1.00;;;;;;5109322;28;20190;-60
2021/06/05 00:09:24;;;;;;;13.40;12.20;;;20.60;1.00;;;;;;5112321;28;20185;-60
2021/06/05 00:11:50;;;;;;;13.90;12.60;;;20.60;1.00;;;;;;5112509;28;20563;-59
2021/06/05 00:14:15;;;;;;;15.60;14.30;;;20.50;1.00;;;;;;5092395;28;20178;-60
2021/06/05 00:16:47;;;;;;;13.90;12.73;;;20.70;1.00;;;;;;5111360;28;20261;-61
2021/06/05 00:19:15;;;;;;;12.63;11.53;;;20.60;1.00;;;;;;5092970;28;20198;-62
2021/06/05 00:21:43;;;;;;;12.60;11.50;;;20.70;1.00;;;;;;5110221;28;20440;-61
2021/06/05 00:24:10;;;;;;;12.37;11.37;;;20.70;1.00;;;;;;5111569;28;20459;-59
2021/06/05 00:26:35;;;;;;;13.37;12.17;;;20.70;1.00;;;;;;5110859;28;20454;-61
2021/06/05 00:29:02;;;;;;;12.70;11.70;;;20.60;1.00;;;;;;5111938;28;20440;-61
2021/06/05 00:31:28;;;;;;;12.40;11.50;;;20.60;1.00;;;;;;5111234;28;20447;-61
2021/06/05 00:33:55;;;;;;;13.40;12.30;;;20.70;1.00;;;;;;5088584;28;20739;-60
2021/06/05 00:36:20;;;;;;;13.30;12.20;;;20.70;1.00;;;;;;5110298;27;20797;-59
2021/06/05 00:38:46;;;;;;;13.43;12.23;;;20.60;1.00;;;;;;5101460;28;20444;-59
2021/06/05 00:41:16;;;;;;;13.20;12.00;;;20.70;1.00;;;;;;5093048;28;20222;-59
2021/06/05 00:43:45;;;;;;;13.20;12.00;;;20.70;1.00;;;;;;5108971;28;20635;-60
2021/06/05 00:46:11;;;;;;;13.67;12.33;;;20.80;1.00;;;;;;5111603;28;20474;-59
2021/06/05 00:48:37;;;;;;;12.93;11.93;;;20.70;1.00;;;;;;5111198;28;20444;-60
2021/06/05 00:51:04;;;;;;;14.00;12.80;;;20.80;1.00;;;;;;5111425;28;20440;-60
2021/06/05 00:53:30;;;;;;;13.27;12.20;;;20.70;1.00;;;;;;5108873;28;20443;-61
2021/06/05 00:55:59;;;;;;;13.27;11.93;;;20.70;1.00;;;;;;5109264;28;20448;-60
2021/06/05 00:58:25;;;;;;;13.00;11.90;;;20.70;1.00;;;;;;5111487;28;20482;-59
2021/06/05 01:01:09;;;;;;;14.30;13.20;;;20.70;1.00;;;;;;5092747;28;20446;-59
2021/06/05 01:03:36;;;;;;;13.17;11.90;;;20.70;1.00;;;;;;5108192;28;20439;-60
2021/06/05 01:06:08;;;;;;;14.20;13.00;;;20.70;1.00;;;;;;5108812;28;20861;-60
2021/06/05 01:08:46;;;;;;;13.10;12.00;;;20.70;1.00;;;;;;5108953;28;20770;-61
2021/06/05 01:11:23;;;;;;;13.37;12.03;;;20.70;1.00;;;;;;5110732;28;20500;-61
2021/06/05 01:13:54;;;;;;;13.77;12.77;;;20.40;1.00;;;;;;5107528;28;20435;-60
2021/06/05 01:16:22;;;;;;;13.50;12.30;;;20.70;1.00;;;;;;5109575;28;21024;-60
2021/06/05 01:18:55;;;;;;;13.37;12.27;;;20.70;1.00;;;;;;5109312;28;20444;-61
2021/06/05 01:21:43;;;;;;;13.10;12.10;;;20.70;1.00;;;;;;5107333;28;20428;-60
2021/06/05 01:24:43;;;;;;;14.07;12.87;;;20.70;1.00;;;;;;5110498;28;20463;-61
2021/06/05 01:27:13;;;;;;;13.20;12.10;;;20.70;1.00;;;;;;5110013;28;20838;-60
2021/06/05 01:29:42;;;;;;;13.37;12.30;;;20.70;1.00;;;;;;5109482;28;20428;-60
2021/06/05 01:32:12;;;;;;;13.90;12.63;;;20.60;1.00;;;;;;5108811;28;20864;-60
2021/06/05 01:34:50;;;;;;;12.73;11.63;;;20.50;1.00;;;;;;5110767;28;20488;-61
2021/06/05 01:37:17;;;;;;;12.83;11.63;;;20.40;1.00;;;;;;5109259;28;21133;-61
2021/06/05 01:39:45;;;;;;;13.90;12.70;;;20.50;1.00;;;;;;5109400;28;20454;-60
2021/06/05 01:42:17;;;;;;;13.40;12.20;;;20.40;1.00;;;;;;5109775;28;20474;-60
2021/06/05 01:44:48;;;;;;;13.83;12.73;;;20.40;1.00;;;;;;5089126;28;20987;-59
2021/06/05 01:47:14;;;;;;;14.23;13.03;;;20.30;1.00;;;;;;5110287;28;20443;-60
2021/06/05 01:49:41;;;;;;;13.33;12.10;;;20.40;1.00;;;;;;5105308;28;20446;-60
2021/06/05 01:52:20;;;;;;;15.07;13.67;;;20.40;1.00;;;;;;5109972;28;20763;-60
2021/06/05 01:54:54;;;;;;;13.30;12.30;;;20.40;1.00;;;;;;5110674;28;20851;-60
2021/06/05 01:57:24;;;;;;;12.83;11.83;;;20.40;1.00;;;;;;5109152;28;20446;-60
2021/06/05 01:59:50;;;;;;;13.77;12.47;;;20.40;1.00;;;;;;5092365;28;20427;-59
2021/06/05 02:02:15;;;;;;;14.30;13.20;;;20.40;1.00;;;;;;5109989;28;20783;-60
2021/06/05 02:04:42;;;;;;;14.30;12.80;;;20.30;1.00;;;;;;5108668;28;20205;-59
2021/06/05 02:07:08;;;;;;;13.60;12.50;;;20.30;1.00;;;;;;5106522;28;20186;-59
2021/06/05 02:09:34;;;;;;;14.00;12.80;;;20.30;1.00;;;;;;5092385;28;20454;-60
2021/06/05 02:12:31;;;;;;;13.50;12.40;;;20.30;1.00;;;;;;5110183;28;20476;-59
2021/06/05 02:15:07;;;;;;;13.40;12.30;;;20.20;1.00;;;;;;5106833;28;20784;-61
2021/06/05 02:17:37;;;;;;;14.00;12.70;;;20.10;1.00;;;;;;5110033;28;20442;-61
2021/06/05 02:20:09;;;;;;;13.33;12.03;;;20.10;1.00;;;;;;5107981;28;20451;-60
2021/06/05 02:22:37;;;;;;;15.73;14.23;;;20.10;1.00;;;;;;5109929;28;20491;-61
2021/06/05 02:25:06;;;;;;;14.17;13.07;;;20.10;1.00;;;;;;5109203;28;20471;-61
2021/06/05 02:27:31;;;;;;;14.70;13.50;;;20.20;1.00;;;;;;5109425;28;20954;-60
2021/06/05 02:29:58;;;;;;;14.50;13.30;;;20.10;1.00;;;;;;5109887;28;20424;-60
2021/06/05 02:32:27;;;;;;;14.33;13.03;;;20.10;1.00;;;;;;5107494;28;20261;-59
2021/06/05 02:34:55;;;;;;;14.50;13.00;;;20.00;1.00;;;;;;5106987;28;20437;-59
2021/06/05 02:37:26;;;;;;;13.30;12.30;;;20.00;1.00;;;;;;5109103;28;20539;-61
2021/06/05 02:39:59;;;;;;;14.67;13.37;;;20.00;1.00;;;;;;5110110;28;20487;-59
2021/06/05 02:42:26;;;;;;;14.00;13.00;;;20.00;1.00;;;;;;5101132;28;20483;-59
2021/06/05 02:44:55;;;;;;;14.00;12.80;;;20.00;1.00;;;;;;5106386;28;21028;-60
2021/06/05 02:47:23;;;;;;;13.43;12.33;;;20.00;1.00;;;;;;5113597;28;20807;-59
2021/06/05 02:49:49;;;;;;;14.13;12.93;;;20.00;1.00;;;;;;5113566;28;20452;-60
2021/06/05 02:52:29;;;;;;;13.87;12.73;;;20.00;1.00;;;;;;5112032;28;20933;-60
2021/06/05 02:54:59;;;;;;;13.43;12.43;;;19.90;1.00;;;;;;5113358;28;20442;-62
2021/06/05 02:57:25;;;;;;;13.90;12.60;;;19.90;1.00;;;;;;5113548;28;20496;-60
2021/06/05 02:59:50;;;;;;;12.97;11.97;;;19.90;1.00;;;;;;5111113;28;20443;-58
2021/06/05 03:02:16;;;;;;;14.33;13.13;;;19.90;1.00;;;;;;5113112;28;20174;-60
2021/06/05 03:04:42;;;;;;;14.20;13.00;;;19.80;1.00;;;;;;5113017;28;20202;-60
2021/06/05 03:07:07;;;;;;;13.80;12.47;;;19.80;1.00;;;;;;5112200;28;20187;-60
2021/06/05 03:09:33;;;;;;;13.87;12.70;;;19.80;1.00;;;;;;5113230;28;20178;-59
2021/06/05 03:12:00;;;;;;;13.80;12.70;;;19.80;1.00;;;;;;5113030;28;20182;-60
2021/06/05 03:14:25;;;;;;;13.73;12.60;;;19.80;1.00;;;;;;5110500;28;20197;-60
2021/06/05 03:16:51;;;;;;;14.33;12.83;;;19.90;1.00;;;;;;5112991;28;20940;-58
2021/06/05 03:19:16;;;;;;;14.53;13.23;;;20.00;1.00;;;;;;5111894;28;20186;-58
2021/06/05 03:21:42;;;;;;;14.43;12.97;;;20.10;1.00;;;;;;5111968;28;20651;-59
2021/06/05 03:24:08;;;;;;;13.93;12.63;;;20.10;1.00;;;;;;5113042;28;20251;-59
2021/06/05 03:26:34;;;;;;;13.63;12.20;;;20.20;1.00;;;;;;5112967;28;20539;-60
2021/06/05 03:28:59;;;;;;;14.23;12.83;;;20.30;1.00;;;;;;5112830;28;20439;-60
2021/06/05 03:31:25;;;;;;;14.83;13.43;;;20.50;1.00;;;;;;5104389;28;20193;-59
2021/06/05 03:33:51;;;;;;;14.63;13.47;;;20.60;1.00;;;;;;5104052;28;20265;-59
2021/06/05 03:36:19;;;;;;;13.80;12.80;;;20.90;1.00;;;;;;5111113;28;20566;-59
2021/06/05 03:38:45;;;;;;;14.23;13.13;;;21.20;1.00;;;;;;5111867;28;20455;-60
2021/06/05 03:41:12;;;;;;;14.20;12.80;;;21.40;1.00;;;;;;5112419;28;20632;-59
2021/06/05 03:43:38;;;;;;;13.13;12.03;;;21.50;1.00;;;;;;5103432;28;20210;-59
2021/06/05 03:46:04;;;;;;;14.67;13.37;;;21.50;1.00;;;;;;5111657;28;20972;-60
2021/06/05 03:48:29;;;;;;;14.97;13.67;;;21.50;1.00;;;;;;5095842;28;20439;-59
2021/06/05 03:50:55;;;;;;;14.47;13.27;;;21.40;1.00;;;;;;5103297;28;20174;-61
2021/06/05 03:53:24;;;;;;;14.43;13.10;;;21.30;1.00;;;;;;5112554;28;20201;-59
2021/06/05 03:55:49;;;;;;;16.43;14.93;;;21.20;1.00;;;;;;5092928;28;20563;-60
2021/06/05 03:58:15;;;;;;;15.10;13.87;;;21.10;1.00;;;;;;5112281;28;20444;-60
2021/06/05 04:00:43;;;;;;;14.73;13.53;;;21.00;1.00;;;;;;5094407;28;20186;-59
2021/06/05 04:03:09;;;;;;;14.83;13.63;;;21.00;1.00;;;;;;5108325;28;20543;-59
2021/06/05 04:05:36;;;;;;;15.77;14.30;;;21.10;1.00;;;;;;5093357;28;20459;-60
2021/06/05 04:08:03;;;;;;;14.37;13.27;;;21.10;1.00;;;;;;5112281;28;20432;-59
2021/06/05 04:10:29;;;;;;;16.00;14.73;;;21.20;1.00;;;;;;5112026;28;20435;-61
2021/06/05 04:12:55;;;;;;;14.90;13.70;;;21.30;1.00;;;;;;5110688;28;20444;-59
2021/06/05 04:15:24;;;;;;;16.13;14.67;;;21.40;1.00;;;;;;5093529;28;20928;-59
2021/06/05 04:18:21;;;;;;;16.03;14.73;;;21.50;1.00;;;;;;5110143;28;20513;-58
2021/06/05 04:20:47;;;;;;;14.73;13.63;;;21.50;1.00;;;;;;5099254;28;20444;-59
2021/06/05 04:23:13;;;;;;;15.83;14.53;;;21.70;1.00;;;;;;5110385;28;20500;-60
2021/06/05 04:25:39;;;;;;;14.97;13.67;;;21.90;1.00;;;;;;5111993;28;20281;-59
2021/06/05 04:28:07;;;;;;;16.13;14.90;;;22.00;1.00;;;;;;5102954;28;20445;-58
2021/06/05 04:30:34;;;;;;;15.77;14.53;;;22.30;1.00;;;;;;5104975;28;20439;-60
2021/06/05 04:33:00;;;;;;;14.97;13.70;;;22.40;1.00;;;;;;5111665;28;20970;-59
2021/06/05 04:35:25;;;;;;;14.20;13.10;;;22.60;1.00;;;;;;5111824;28;20542;-59
2021/06/05 04:37:51;;;;;;;14.87;13.57;;;22.70;1.00;;;;;;5100376;28;20209;-59
2021/06/05 04:40:18;;;;;;;14.37;13.17;;;22.70;1.00;;;;;;5111877;28;20182;-59
2021/06/05 04:42:43;;;;;;;14.43;13.27;;;22.60;1.00;;;;;;5110078;28;20225;-59
2021/06/05 04:45:09;;;;;;;13.80;12.80;;;22.60;1.00;;;;;;5109126;28;20527;-60
2021/06/05 04:47:35;;;;;;;14.40;13.30;;;22.70;1.00;;;;;;5092388;28;20189;-59
2021/06/05 04:50:03;;;;;;;14.27;13.17;;;22.60;1.00;;;;;;5111148;28;20452;-58
2021/06/05 04:52:28;;;;;;;14.87;13.60;;;22.40;1.00;;;;;;5108823;28;20234;-58
2021/06/05 04:54:54;;;;;;;13.17;12.17;;;22.30;1.00;;;;;;5093242;28;20929;-59
2021/06/05 04:57:20;;;;;;;14.57;13.30;;;22.10;1.00;;;;;;5111490;28;20181;-59
2021/06/05 04:59:45;;;;;;;14.80;13.50;;;22.00;1.00;;;;;;5109760;28;20639;-61
2021/06/05 05:02:11;;;;;;;14.47;13.27;;;21.90;1.00;;;;;;5111012;28;20627;-58
2021/06/05 05:04:36;;;;;;;14.43;13.33;;;21.60;1.00;;;;;;5107155;27;20690;-58
2021/06/05 05:07:02;;;;;;;14.40;13.10;;;21.60;1.00;;;;;;5092426;28;20663;-58
2021/06/05 05:09:28;;;;;;;14.07;12.80;;;21.60;1.00;;;;;;5109267;28;20276;-59
2021/06/05 05:11:53;;;;;;;14.80;13.23;;;21.50;1.00;;;;;;5093242;28;20251;-60
2021/06/05 05:14:19;;;;;;;13.53;12.20;;;21.40;1.00;;;;;;5110233;27;20529;-60
2021/06/05 05:16:45;;;;;;;15.00;13.67;;;21.40;1.00;;;;;;5088340;28;20179;-60
2021/06/05 05:19:10;;;;;;;14.43;13.23;;;21.40;1.00;;;;;;5089841;28;20186;-60
2021/06/05 05:21:36;;;;;;;14.33;13.13;;;21.60;1.00;;;;;;5100776;28;20196;-60
2021/06/05 05:24:02;;;;;;;14.70;13.60;;;21.90;1.00;;;;;;5107107;28;20182;-60
2021/06/05 05:26:28;;;;;;;14.63;13.27;;;22.20;1.00;;;;;;5110823;28;20181;-60
2021/06/05 05:28:55;;;;;;;13.70;12.60;;;22.50;1.00;;;;;;5110424;28;20435;-60
2021/06/05 05:31:25;;;;;;;15.50;12.67;;;22.80;1.00;;;;;;5110703;28;20542;-60
2021/06/05 05:33:51;;;;;;;14.03;12.93;;;23.00;1.00;;;;;;5110536;28;20432;-60
2021/06/05 05:36:30;;;;;;;13.77;12.60;;;22.90;1.00;;;;;;5103053;28;20545;-53
2021/06/05 05:38:56;;;;;;;13.07;12.00;;;23.00;1.00;;;;;;5106357;28;20450;-53
2021/06/05 05:41:23;;;;;;;13.23;12.03;;;23.10;1.00;;;;;;5097995;28;20467;-53
2021/06/05 05:43:49;;;;;;;13.70;12.57;;;23.30;1.00;;;;;;5108034;28;20576;-53
2021/06/05 05:46:16;;;;;;;12.70;11.70;;;23.70;1.00;;;;;;5086851;28;20459;-53
2021/06/05 05:48:42;;;;;;;12.43;11.27;;;23.80;1.00;;;;;;5098127;28;20534;-53
2021/06/05 05:51:11;;;;;;;12.93;11.70;;;23.90;1.00;;;;;;5105685;28;20945;-52
2021/06/05 05:53:39;;;;;;;12.67;11.67;;;23.80;1.00;;;;;;5107853;28;20431;-52
2021/06/05 05:56:05;;;;;;;12.50;11.40;;;23.70;1.00;;;;;;5102142;28;20941;-52
2021/06/05 05:58:35;;;;;;;12.57;11.30;;;23.90;1.00;;;;;;5088833;28;20459;-53
2021/06/05 06:01:01;;;;;;;12.57;11.47;;;23.80;1.00;;;;;;5098816;28;20458;-53
2021/06/05 06:03:26;;;;;;;12.20;11.23;;;23.90;1.00;;;;;;5101951;28;20441;-51
2021/06/05 06:05:52;;;;;;;12.80;11.70;;;24.10;1.00;;;;;;5099762;28;20236;-53
2021/06/05 06:08:19;;;;;;;12.63;11.33;;;24.20;1.00;;;;;;5105506;28;20223;-53
2021/06/05 06:10:45;;;;;;;15.43;13.50;;;24.20;1.00;;;;;;5104822;28;20182;-54
2021/06/05 06:13:11;;;;;;;13.07;12.03;;;24.30;1.00;;;;;;5102030;28;20440;-53
2021/06/05 06:15:38;;;;;;;12.90;11.90;;;24.40;1.00;;;;;;5102232;28;20448;-53
2021/06/05 06:18:05;;;;;;;12.10;11.20;;;24.50;1.00;;;;;;5103131;28;20250;-53
2021/06/05 06:20:37;;;;;;;11.63;10.63;;;24.60;1.00;;;;;;5101715;28;20793;-54
2021/06/05 06:23:03;;;;;;;13.70;12.70;;;24.60;1.00;;;;;;5108761;28;20517;-54
2021/06/05 06:25:32;;;;;;;12.70;11.80;;;24.60;1.00;;;;;;5107140;28;20515;-55
2021/06/05 06:27:58;;;;;;;12.30;11.20;;;24.70;1.00;;;;;;5114503;28;20185;-53
2021/06/05 06:30:32;;;;;;;12.73;11.47;;;24.80;1.00;;;;;;5107113;28;20987;-53
2021/06/05 06:32:58;;;;;;;12.47;11.47;;;24.90;1.00;;;;;;5106782;28;20443;-55
2021/06/05 06:35:26;;;;;;;14.00;12.80;;;24.90;1.00;;;;;;5110596;28;20805;-55
2021/06/05 06:37:52;;;;;;;13.07;12.07;;;24.80;1.00;;;;;;5088576;28;20179;-53
2021/06/05 06:40:21;;;;;;;13.43;12.33;;;24.60;1.00;;;;;;5105028;28;20439;-53
2021/06/05 06:42:46;;;;;;;12.90;11.80;;;24.50;1.00;;;;;;5113599;28;21003;-53
2021/06/05 06:45:13;;;;;;;11.83;10.73;;;24.40;1.00;;;;;;5105799;28;20524;-53
2021/06/05 06:47:38;;;;;;;12.50;11.30;;;24.30;1.00;;;;;;5104459;28;20605;-54
2021/06/05 06:50:06;;;;;;;12.80;11.57;;;24.20;1.00;;;;;;5105069;28;20520;-53
2021/06/05 06:52:32;;;;;;;12.40;11.50;;;24.20;1.00;;;;;;5107836;28;20239;-52
2021/06/05 06:54:57;;;;;;;12.27;11.03;;;24.30;1.00;;;;;;5108600;28;20443;-54
2021/06/05 06:57:23;;;;;;;11.23;10.23;;;24.50;1.00;;;;;;5107369;28;20192;-54
2021/06/05 06:59:48;;;;;;;11.83;10.77;;;24.70;1.00;;;;;;5105336;28;20229;-54
2021/06/05 07:02:14;;;;;;;14.57;13.23;;;25.00;1.00;;;;;;5107753;28;20231;-54
2021/06/05 07:04:40;;;;;;;12.70;11.60;;;25.10;1.00;;;;;;5108434;28;20206;-56
2021/06/05 07:07:06;;;;;;;11.93;10.83;;;25.40;1.00;;;;;;5103169;28;20179;-54
2021/06/05 07:09:32;;;;;;;12.47;11.37;;;25.80;1.00;;;;;;5092972;28;20193;-54
2021/06/05 07:11:59;;;;;;;11.90;11.00;;;26.10;1.00;;;;;;5087435;28;20448;-53
2021/06/05 07:14:25;;;;;;;12.40;11.40;;;26.20;1.00;;;;;;5113991;28;20510;-54
2021/06/05 07:16:51;;;;;;;13.20;12.10;;;26.30;1.00;;;;;;5101643;28;20520;-53
2021/06/05 07:19:16;;;;;;;12.70;11.77;;;26.30;1.00;;;;;;5113552;28;20976;-54
2021/06/05 07:21:42;;;;;;;12.53;11.27;;;26.30;1.00;;;;;;5105555;28;20207;-53
2021/06/05 07:24:08;;;;;;;12.60;11.57;;;26.30;1.00;;;;;;5110673;28;20178;-54
2021/06/05 07:26:34;;;;;;;13.50;12.20;;;26.50;1.00;;;;;;5106331;28;20433;-55
2021/06/05 07:29:04;;;;;;;12.60;11.60;;;26.60;1.00;;;;;;5103792;28;20246;-54
2021/06/05 07:31:33;;;;;;;13.00;11.80;;;26.80;1.00;;;;;;5108271;28;20547;-55
2021/06/05 07:33:59;;;;;;;13.40;12.33;;;26.80;1.00;;;;;;5112264;28;20555;-57
2021/06/05 07:36:39;;;;;;;12.37;11.30;;;26.80;1.00;;;;;;5106412;28;20490;-55
2021/06/05 07:39:08;;;;;;;12.07;10.90;;;27.10;1.00;;;;;;5107900;28;21063;-55
2021/06/05 07:41:34;;;;;;;11.67;10.60;;;27.90;1.00;;;;;;5105303;28;20962;-55
2021/06/05 07:44:00;;;;;;;11.67;10.60;;;28.20;1.00;;;;;;5106720;28;20512;-55
2021/06/05 07:46:26;;;;;;;12.90;11.67;;;28.40;1.00;;;;;;5108421;28;20202;-55
2021/06/05 07:48:52;;;;;;;12.83;11.20;;;28.40;1.00;;;;;;5085498;28;20182;-54
2021/06/05 07:51:18;;;;;;;13.00;11.60;;;28.20;1.00;;;;;;5106959;27;20436;-57
2021/06/05 07:53:45;;;;;;;13.10;11.90;;;27.90;1.00;;;;;;5105786;27;20186;-59
2021/06/05 07:56:11;;;;;;;12.87;11.60;;;27.80;1.00;;;;;;5090968;28;20861;-58
2021/06/05 07:58:36;;;;;;;12.17;11.17;;;27.90;1.00;;;;;;5112455;28;20542;-59
2021/06/05 08:01:04;;;;;;;11.90;10.80;;;28.10;1.00;;;;;;5112309;28;20188;-60
2021/06/05 08:03:29;;;;;;;13.30;12.20;;;28.20;1.00;;;;;;5107791;28;20193;-59
2021/06/05 08:05:55;;;;;;;12.97;11.87;;;28.30;1.00;;;;;;5111989;28;20468;-62
2021/06/05 08:08:20;;;;;;;13.37;12.13;;;28.40;1.00;;;;;;5112345;28;20200;-59
2021/06/05 08:10:46;;;;;;;13.80;12.53;;;28.40;1.00;;;;;;5112227;28;20178;-60
2021/06/05 08:13:12;;;;;;;12.80;11.70;;;28.40;1.00;;;;;;5112074;28;20228;-59
2021/06/05 08:15:41;;;;;;;12.23;11.23;;;28.50;1.00;;;;;;5112579;28;20225;-59
2021/06/05 08:18:08;;;;;;;12.17;11.23;;;28.20;1.00;;;;;;5105767;27;20774;-61
2021/06/05 08:20:40;;;;;;;12.20;10.80;;;28.30;1.00;;;;;;5111884;28;20440;-59
2021/06/05 08:23:07;;;;;;;11.63;10.70;;;28.50;1.00;;;;;;5111608;28;20471;-59
2021/06/05 08:25:34;;;;;;;12.73;11.53;;;28.60;1.00;;;;;;5111825;28;20895;-58
2021/06/05 08:27:59;;;;;;;12.40;11.33;;;28.50;1.00;;;;;;5105655;27;20503;-59
2021/06/05 08:30:34;;;;;;;12.10;11.10;;;28.40;1.00;;;;;;5086953;28;20443;-60
2021/06/05 08:33:00;;;;;;;12.40;11.40;;;28.00;1.00;;;;;;5092838;28;20194;-59
2021/06/05 08:35:26;;;;;;;11.70;10.80;;;28.00;1.00;;;;;;5111334;28;20496;-59
2021/06/05 08:37:51;;;;;;;12.63;11.63;;;27.90;1.00;;;;;;5111855;28;20440;-59
2021/06/05 08:40:25;;;;;;;13.17;12.07;;;28.00;1.00;;;;;;5108736;28;20948;-59
2021/06/05 08:42:53;;;;;;;13.00;11.77;;;27.90;1.00;;;;;;5110431;28;20288;-58
2021/06/05 08:45:24;;;;;;;14.10;12.67;;;27.60;1.00;;;;;;5095122;28;20495;-58
2021/06/05 08:47:50;;;;;;;13.87;12.57;;;27.40;1.00;;;;;;5108158;28;20964;-60
2021/06/05 08:50:23;;;;;;;12.83;11.83;;;27.20;1.00;;;;;;5067342;28;20541;-58
2021/06/05 08:52:53;;;;;;;12.53;11.53;;;26.80;1.00;;;;;;5111489;28;20440;-59
2021/06/05 08:55:31;;;;;;;14.60;13.20;;;26.80;1.00;;;;;;5091647;28;20762;-60
2021/06/05 08:58:17;;;;;;;13.27;12.03;;;26.70;1.00;;;;;;5103585;28;20435;-58
2021/06/05 09:00:46;;;;;;;13.03;12.07;;;26.60;1.00;;;;;;5111270;28;20469;-58
2021/06/05 09:03:20;;;;;;;13.87;12.57;;;26.70;1.00;;;;;;5110865;28;20442;-61
2021/06/05 09:06:14;;;;;;;12.70;11.70;;;26.70;1.00;;;;;;5092928;28;20565;-60
2021/06/05 09:08:40;;;;;;;13.10;12.10;;;26.70;1.00;;;;;;5110554;28;20432;-61
2021/06/05 09:11:06;;;;;;;13.97;12.90;;;26.70;1.00;;;;;;5111414;28;20447;-58
2021/06/05 09:13:33;;;;;;;14.67;12.57;;;26.60;1.00;;;;;;5110810;28;20663;-62
2021/06/05 09:16:20;;;;;;;13.17;11.93;;;26.60;1.00;;;;;;5110057;28;20187;-60
2021/06/05 09:19:08;;;;;;;13.33;12.00;;;26.60;1.00;;;;;;5109461;28;20431;-60
2021/06/05 09:22:06;;;;;;;14.10;12.90;;;26.60;1.00;;;;;;5065850;28;21439;-58
2021/06/05 09:24:44;;;;;;;15.37;14.07;;;26.50;1.00;;;;;;5095595;28;20471;-60
2021/06/05 09:27:09;;;;;;;13.50;12.20;;;26.70;1.00;;;;;;5109209;28;20781;-59
2021/06/05 09:30:15;;;;;;;13.30;12.13;;;26.80;1.00;;;;;;5101663;28;20437;-59
2021/06/05 09:32:47;;;;;;;13.80;12.70;;;27.00;1.00;;;;;;5107988;28;20235;-59
2021/06/05 09:35:14;;;;;;;13.20;12.03;;;27.00;1.00;;;;;;5102202;27;20427;-59
2021/06/05 09:37:44;;;;;;;14.33;13.00;;;27.20;1.00;;;;;;5102271;27;20435;-59
2021/06/05 09:40:19;;;;;;;15.10;13.70;;;27.50;1.00;;;;;;5093104;28;20945;-60
2021/06/05 09:42:48;;;;;;;13.90;12.60;;;27.20;1.00;;;;;;5111623;27;20542;-62
2021/06/05 09:45:28;;;;;;;14.83;13.57;;;27.10;1.00;;;;;;5092908;28;20547;-60
2021/06/05 09:48:16;;;;;;;14.63;13.13;;;27.10;1.00;;;;;;5110484;28;20876;-59
2021/06/05 09:50:45;;;;;;;14.33;13.13;;;27.10;1.00;;;;;;5110725;28;20451;-59
2021/06/05 09:53:15;;;;;;;13.70;12.60;;;27.20;1.00;;;;;;5110266;28;20435;-60
2021/06/05 09:55:41;;;;;;;12.90;12.00;;;27.30;1.00;;;;;;5110314;28;20467;-60
2021/06/05 09:58:11;;;;;;;13.87;12.77;;;27.40;1.00;;;;;;5110121;28;20447;-59
2021/06/05 10:00:41;;;;;;;14.30;13.10;;;27.60;1.00;;;;;;5110930;28;20530;-60
2021/06/05 10:03:26;;;;;;;13.70;12.67;;;27.80;1.00;;;;;;5110141;28;20956;-60
2021/06/05 10:05:52;;;;;;;12.80;11.80;;;27.80;1.00;;;;;;5110435;28;20467;-60
2021/06/05 10:08:26;;;;;;;16.03;14.73;;;28.00;1.00;;;;;;5091907;28;20886;-61
2021/06/05 10:11:22;;;;;;;14.53;13.40;;;28.20;1.00;;;;;;5111335;28;20185;-59
2021/06/05 10:14:13;;;;;;;14.93;13.83;;;28.30;1.00;;;;;;5058455;28;20441;-61
2021/06/05 10:16:43;;;;;;;14.83;13.63;;;28.30;1.00;;;;;;5108760;28;20468;-60
2021/06/05 10:19:52;;;;;;;15.97;14.67;;;28.30;1.00;;;;;;5086299;28;20953;-62
2021/06/05 10:22:18;;;;;;;15.10;13.90;;;28.40;1.00;;;;;;5097157;28;20510;-60
2021/06/05 10:24:55;;;;;;;16.67;15.47;;;28.50;1.00;;;;;;5093900;28;20499;-62
2021/06/05 10:27:30;;;;;;;15.90;14.60;;;28.50;1.00;;;;;;5108277;28;20166;-62
2021/06/05 10:30:06;;;;;;;14.67;13.17;;;28.60;1.00;;;;;;5097460;28;20427;-60
2021/06/05 10:32:42;;;;;;;15.40;14.20;;;28.80;1.00;;;;;;5110339;28;20423;-61
2021/06/05 10:35:23;;;;;;;16.37;15.17;;;28.70;1.00;;;;;;5103807;28;20783;-62
2021/06/05 10:37:50;;;;;;;15.97;14.60;;;28.70;1.00;;;;;;5098454;28;20440;-61
2021/06/05 10:40:22;;;;;;;16.30;14.90;;;28.70;1.00;;;;;;5108647;28;20531;-62
2021/06/05 10:42:53;;;;;;;16.30;15.00;;;28.70;1.00;;;;;;5109614;28;20875;-62
2021/06/05 10:45:28;;;;;;;16.73;15.43;;;28.70;1.00;;;;;;5107599;28;20466;-60
2021/06/05 10:48:06;;;;;;;17.03;15.50;;;28.60;1.00;;;;;;5104250;28;20436;-61
2021/06/05 10:50:44;;;;;;;16.13;14.60;;;28.60;1.00;;;;;;5090125;28;20475;-59
2021/06/05 10:53:29;;;;;;;14.93;13.73;;;28.60;1.00;;;;;;5109582;28;20431;-59
2021/06/05 10:55:59;;;;;;;16.10;14.90;;;28.60;1.00;;;;;;5098141;28;20493;-60
2021/06/05 10:58:43;;;;;;;16.07;14.77;;;28.70;1.00;;;;;;5109583;28;20438;-63
2021/06/05 11:01:39;;;;;;;14.40;13.40;;;28.80;1.00;;;;;;5105040;28;20964;-60
2021/06/05 11:04:32;;;;;;;12.00;11.20;;;29.10;1.00;;;;;;5109014;28;20862;-59
2021/06/05 11:07:04;;;;;;;15.20;13.77;;;29.50;1.00;;;;;;5094690;28;20486;-59
2021/06/05 11:09:30;;;;;;;13.87;12.77;;;29.80;1.00;;;;;;5112719;28;20432;-60
2021/06/05 11:12:27;;;;;;;14.33;13.10;;;29.60;1.00;;;;;;5112435;28;20450;-59
2021/06/05 11:14:56;;;;;;;14.30;13.10;;;29.60;1.00;;;;;;5111693;28;20410;-59
2021/06/05 11:17:40;;;;;;;13.33;12.43;;;29.50;1.00;;;;;;5094384;28;20462;-59
2021/06/05 11:20:06;;;;;;;14.13;12.77;;;30.00;1.00;;;;;;5112776;28;20858;-58
2021/06/05 11:22:50;;;;;;;13.20;12.30;;;29.70;1.00;;;;;;5112537;27;20997;-58
2021/06/05 11:25:16;;;;;;;11.07;10.23;;;29.50;1.00;;;;;;5113044;28;20996;-59
2021/06/05 11:27:41;;;;;;;14.03;12.63;;;29.50;1.00;;;;;;5106098;28;20463;-59
2021/06/05 11:30:22;;;;;;;12.40;11.37;;;29.40;1.00;;;;;;5112445;28;20201;-59
2021/06/05 11:32:50;;;;;;;11.07;10.17;;;29.50;1.00;;;;;;5111741;28;20166;-59
2021/06/05 11:35:40;;;;;;;10.10;9.27;;;29.90;1.00;;;;;;5112575;28;20488;-59
2021/06/05 11:38:32;;;;;;;11.00;10.10;;;29.90;1.00;;;;;;5107981;28;20532;-58
2021/06/05 11:41:04;;;;;;;9.67;8.97;;;30.00;1.00;;;;;;5073115;28;20471;-59
2021/06/05 11:43:30;;;;;;;10.63;9.77;;;30.70;1.00;;;;;;5093639;28;20448;-59
2021/06/05 11:45:59;;;;;;;11.10;10.23;;;31.30;1.00;;;;;;5112353;28;20794;-59
2021/06/05 11:48:47;;;;;;;10.90;10.10;;;31.40;1.00;;;;;;5112216;27;20255;-59
2021/06/05 11:51:21;;;;;;;11.80;10.90;;;31.10;1.00;;;;;;5108157;28;20929;-58
2021/06/05 11:53:59;;;;;;;10.80;10.00;;;30.90;1.00;;;;;;5112440;28;20466;-59
2021/06/05 11:56:33;;;;;;;9.73;8.97;;;30.60;1.00;;;;;;5111940;28;20916;-58
2021/06/05 11:59:17;;;;;;;11.10;10.20;;;30.30;1.00;;;;;;5112421;28;20793;-59
2021/06/05 12:01:42;;;;;;;10.00;9.30;;;30.00;1.00;;;;;;5112354;28;20443;-59
2021/06/05 12:04:15;;;;;;;10.00;9.20;;;29.80;1.00;;;;;;5111385;28;20944;-58
2021/06/05 12:06:46;;;;;;;10.10;9.40;;;29.30;1.00;;;;;;5111478;27;20186;-59
2021/06/05 12:09:23;;;;;;;10.23;9.43;;;29.50;1.00;;;;;;5098621;27;20452;-59
2021/06/05 12:11:51;;;;;;;10.13;9.53;;;29.60;1.00;;;;;;5100557;27;20450;-58
2021/06/05 12:14:26;;;;;;;9.27;8.67;;;30.00;1.00;;;;;;5095929;27;20847;-59
2021/06/05 12:17:01;;;;;;;10.17;9.40;;;30.50;1.00;;;;;;5090983;28;20436;-59
2021/06/05 12:19:33;;;;;;;9.87;9.03;;;30.70;1.00;;;;;;5111492;28;20431;-59
2021/06/05 12:22:09;;;;;;;10.13;9.33;;;31.10;1.00;;;;;;5111960;28;20526;-59
2021/06/05 12:24:37;;;;;;;10.70;9.37;;;31.20;1.00;;;;;;5110686;28;20496;-58
2021/06/05 12:27:04;;;;;;;10.93;10.00;;;31.40;1.00;;;;;;5111961;28;20439;-59
2021/06/05 12:29:38;;;;;;;10.37;9.67;;;31.30;1.00;;;;;;5111400;28;20547;-59
2021/06/05 12:32:27;;;;;;;11.97;10.07;;;30.40;1.00;;;;;;5093690;28;20440;-58
2021/06/05 12:34:53;;;;;;;10.60;9.80;;;29.70;1.00;;;;;;5111858;28;20952;-60
2021/06/05 12:37:31;;;;;;;9.63;9.03;;;29.30;1.00;;;;;;5111462;28;20475;-59
2021/06/05 12:40:16;;;;;;;9.70;9.10;;;29.00;1.00;;;;;;5111441;27;20202;-58
2021/06/05 12:42:43;;;;;;;8.77;8.07;;;28.80;1.00;;;;;;5109327;28;20502;-60
2021/06/05 12:45:21;;;;;;;8.57;7.97;;;31.40;1.00;;;;;;5111398;28;20480;-59
2021/06/05 12:47:55;;;;;;;10.10;9.20;;;28.70;1.00;;;;;;5108402;28;20447;-59
2021/06/05 12:50:28;;;;;;;10.00;9.20;;;28.70;1.00;;;;;;5109563;28;20436;-60
2021/06/05 12:52:54;;;;;;;9.00;8.23;;;28.80;1.00;;;;;;5102607;28;20810;-59
2021/06/05 12:55:35;;;;;;;9.00;8.30;;;28.90;1.00;;;;;;5085550;28;20843;-60